sensor_id;sensor_type;location;lat;lon;timestamp;P1;durP1;ratioP1;P2;durP2;ratioP2
74064;SDS011;62421;51.412;5.432;2023-08-17T00:00:11;6.93;;;2.00;;
74064;SDS011;62421;51.412;5.432;2023-08-17T00:02:41;7.38;;;2.10;;
74064;SDS011;62421;51.412;5.432;2023-08-17T00:05:07;7.33;;;2.10;;
74064;SDS011;62421;51.412;5.432;2023-08-17T00:07:32;3.67;;;1.60;;
74064;SDS011;62421;51.412;5.432;2023-08-17T00:09:58;8.07;;;2.60;;
74064;SDS011;62421;51.412;5.432;2023-08-17T00:12:24;6.05;;;2.28;;
74064;SDS011;62421;51.412;5.432;2023-08-17T00:14:50;8.50;;;1.73;;
74064;SDS011;62421;51.412;5.432;2023-08-17T00:17:16;8.18;;;2.25;;
74064;SDS011;62421;51.412;5.432;2023-08-17T00:19:41;6.57;;;2.63;;
74064;SDS011;62421;51.412;5.432;2023-08-17T00:22:07;7.23;;;2.10;;
74064;SDS011;62421;51.412;5.432;2023-08-17T00:24:32;6.38;;;1.95;;
74064;SDS011;62421;51.412;5.432;2023-08-17T00:26:57;5.60;;;2.47;;
74064;SDS011;62421;51.412;5.432;2023-08-17T00:29:23;6.17;;;2.13;;
74064;SDS011;62421;51.412;5.432;2023-08-17T00:31:48;5.87;;;2.20;;
74064;SDS011;62421;51.412;5.432;2023-08-17T00:34:13;7.17;;;1.87;;
74064;SDS011;62421;51.412;5.432;2023-08-17T00:36:39;6.77;;;2.17;;
74064;SDS011;62421;51.412;5.432;2023-08-17T00:39:04;11.37;;;2.43;;
74064;SDS011;62421;51.412;5.432;2023-08-17T00:41:29;5.90;;;1.85;;
74064;SDS011;62421;51.412;5.432;2023-08-17T00:43:55;5.93;;;2.37;;
74064;SDS011;62421;51.412;5.432;2023-08-17T00:46:21;7.30;;;2.40;;
74064;SDS011;62421;51.412;5.432;2023-08-17T00:48:48;7.63;;;2.50;;
74064;SDS011;62421;51.412;5.432;2023-08-17T00:51:13;8.07;;;2.10;;
74064;SDS011;62421;51.412;5.432;2023-08-17T00:53:39;9.27;;;2.15;;
74064;SDS011;62421;51.412;5.432;2023-08-17T00:56:05;8.13;;;2.87;;
74064;SDS011;62421;51.412;5.432;2023-08-17T00:58:31;7.03;;;2.15;;
74064;SDS011;62421;51.412;5.432;2023-08-17T01:00:57;7.43;;;2.28;;
74064;SDS011;62421;51.412;5.432;2023-08-17T01:03:23;11.32;;;2.60;;
74064;SDS011;62421;51.412;5.432;2023-08-17T01:05:51;5.18;;;2.05;;
74064;SDS011;62421;51.412;5.432;2023-08-17T01:08:16;9.60;;;2.33;;
74064;SDS011;62421;51.412;5.432;2023-08-17T01:13:23;9.30;;;1.90;;
74064;SDS011;62421;51.412;5.432;2023-08-17T01:15:56;6.82;;;1.95;;
74064;SDS011;62421;51.412;5.432;2023-08-17T01:18:23;5.78;;;2.17;;
74064;SDS011;62421;51.412;5.432;2023-08-17T01:20:55;8.30;;;2.17;;
74064;SDS011;62421;51.412;5.432;2023-08-17T01:23:22;6.13;;;1.95;;
74064;SDS011;62421;51.412;5.432;2023-08-17T01:25:48;6.63;;;2.63;;
74064;SDS011;62421;51.412;5.432;2023-08-17T01:28:13;5.50;;;2.17;;
74064;SDS011;62421;51.412;5.432;2023-08-17T01:30:41;5.33;;;2.57;;
74064;SDS011;62421;51.412;5.432;2023-08-17T01:33:13;7.22;;;2.30;;
74064;SDS011;62421;51.412;5.432;2023-08-17T01:38:14;7.85;;;2.30;;
74064;SDS011;62421;51.412;5.432;2023-08-17T01:40:43;5.93;;;1.92;;
74064;SDS011;62421;51.412;5.432;2023-08-17T01:43:10;10.80;;;2.90;;
74064;SDS011;62421;51.412;5.432;2023-08-17T01:45:37;5.75;;;1.80;;
74064;SDS011;62421;51.412;5.432;2023-08-17T01:48:02;7.70;;;2.20;;
74064;SDS011;62421;51.412;5.432;2023-08-17T01:50:28;9.73;;;2.05;;
74064;SDS011;62421;51.412;5.432;2023-08-17T01:52:53;5.63;;;2.77;;
74064;SDS011;62421;51.412;5.432;2023-08-17T01:55:20;7.07;;;2.27;;
74064;SDS011;62421;51.412;5.432;2023-08-17T01:57:46;8.73;;;2.67;;
74064;SDS011;62421;51.412;5.432;2023-08-17T02:00:12;5.93;;;2.27;;
74064;SDS011;62421;51.412;5.432;2023-08-17T02:02:38;7.07;;;2.35;;
74064;SDS011;62421;51.412;5.432;2023-08-17T02:05:04;7.40;;;2.57;;
74064;SDS011;62421;51.412;5.432;2023-08-17T02:07:29;6.20;;;2.70;;
74064;SDS011;62421;51.412;5.432;2023-08-17T02:09:54;13.07;;;2.58;;
74064;SDS011;62421;51.412;5.432;2023-08-17T02:12:20;6.70;;;2.72;;
74064;SDS011;62421;51.412;5.432;2023-08-17T02:14:45;9.20;;;2.80;;
74064;SDS011;62421;51.412;5.432;2023-08-17T02:17:10;8.43;;;2.60;;
74064;SDS011;62421;51.412;5.432;2023-08-17T02:19:36;5.37;;;2.77;;
74064;SDS011;62421;51.412;5.432;2023-08-17T02:22:02;7.22;;;2.70;;
74064;SDS011;62421;51.412;5.432;2023-08-17T02:24:28;7.50;;;2.33;;
74064;SDS011;62421;51.412;5.432;2023-08-17T02:26:53;7.50;;;2.65;;
74064;SDS011;62421;51.412;5.432;2023-08-17T02:29:19;8.70;;;3.00;;
74064;SDS011;62421;51.412;5.432;2023-08-17T02:31:44;6.70;;;2.17;;
74064;SDS011;62421;51.412;5.432;2023-08-17T02:34:09;7.23;;;2.83;;
74064;SDS011;62421;51.412;5.432;2023-08-17T02:36:35;10.57;;;2.43;;
74064;SDS011;62421;51.412;5.432;2023-08-17T02:39:00;9.27;;;3.33;;
74064;SDS011;62421;51.412;5.432;2023-08-17T02:41:25;7.43;;;2.67;;
74064;SDS011;62421;51.412;5.432;2023-08-17T02:43:51;11.60;;;3.03;;
74064;SDS011;62421;51.412;5.432;2023-08-17T02:46:16;7.20;;;2.65;;
74064;SDS011;62421;51.412;5.432;2023-08-17T02:48:42;9.13;;;2.73;;
74064;SDS011;62421;51.412;5.432;2023-08-17T02:51:07;7.60;;;2.90;;
74064;SDS011;62421;51.412;5.432;2023-08-17T02:53:32;7.80;;;2.83;;
74064;SDS011;62421;51.412;5.432;2023-08-17T02:55:57;9.83;;;2.97;;
74064;SDS011;62421;51.412;5.432;2023-08-17T02:58:23;5.77;;;2.37;;
74064;SDS011;62421;51.412;5.432;2023-08-17T03:00:50;7.00;;;2.80;;
74064;SDS011;62421;51.412;5.432;2023-08-17T03:03:16;10.35;;;3.15;;
74064;SDS011;62421;51.412;5.432;2023-08-17T03:05:41;7.80;;;3.33;;
74064;SDS011;62421;51.412;5.432;2023-08-17T03:08:07;9.70;;;3.17;;
74064;SDS011;62421;51.412;5.432;2023-08-17T03:10:32;7.33;;;2.70;;
74064;SDS011;62421;51.412;5.432;2023-08-17T03:12:57;7.25;;;3.00;;
74064;SDS011;62421;51.412;5.432;2023-08-17T03:15:23;11.90;;;2.50;;
74064;SDS011;62421;51.412;5.432;2023-08-17T03:17:48;4.90;;;2.67;;
74064;SDS011;62421;51.412;5.432;2023-08-17T03:20:13;9.07;;;2.73;;
74064;SDS011;62421;51.412;5.432;2023-08-17T03:22:39;11.33;;;3.03;;
74064;SDS011;62421;51.412;5.432;2023-08-17T03:25:04;11.50;;;3.20;;
74064;SDS011;62421;51.412;5.432;2023-08-17T03:27:30;8.68;;;2.95;;
74064;SDS011;62421;51.412;5.432;2023-08-17T03:29:55;11.20;;;3.57;;
74064;SDS011;62421;51.412;5.432;2023-08-17T03:32:21;8.70;;;2.97;;
74064;SDS011;62421;51.412;5.432;2023-08-17T03:34:46;7.13;;;3.00;;
74064;SDS011;62421;51.412;5.432;2023-08-17T03:37:11;8.13;;;2.77;;
74064;SDS011;62421;51.412;5.432;2023-08-17T03:39:37;8.35;;;3.08;;
74064;SDS011;62421;51.412;5.432;2023-08-17T03:42:03;9.70;;;2.60;;
74064;SDS011;62421;51.412;5.432;2023-08-17T03:44:28;6.57;;;2.80;;
74064;SDS011;62421;51.412;5.432;2023-08-17T03:46:53;14.90;;;3.47;;
74064;SDS011;62421;51.412;5.432;2023-08-17T03:49:19;9.57;;;2.97;;
74064;SDS011;62421;51.412;5.432;2023-08-17T03:51:44;9.13;;;3.28;;
74064;SDS011;62421;51.412;5.432;2023-08-17T03:54:10;8.63;;;2.80;;
74064;SDS011;62421;51.412;5.432;2023-08-17T03:56:36;8.57;;;3.10;;
74064;SDS011;62421;51.412;5.432;2023-08-17T03:59:02;9.10;;;2.60;;
74064;SDS011;62421;51.412;5.432;2023-08-17T04:01:28;8.63;;;2.83;;
74064;SDS011;62421;51.412;5.432;2023-08-17T04:03:54;8.45;;;2.58;;
74064;SDS011;62421;51.412;5.432;2023-08-17T04:06:19;7.37;;;2.50;;
74064;SDS011;62421;51.412;5.432;2023-08-17T04:08:45;10.03;;;2.47;;
74064;SDS011;62421;51.412;5.432;2023-08-17T04:11:11;7.18;;;2.88;;
74064;SDS011;62421;51.412;5.432;2023-08-17T04:13:36;5.80;;;2.50;;
74064;SDS011;62421;51.412;5.432;2023-08-17T04:16:01;8.67;;;2.40;;
74064;SDS011;62421;51.412;5.432;2023-08-17T04:18:27;8.20;;;2.33;;
74064;SDS011;62421;51.412;5.432;2023-08-17T04:20:52;9.80;;;3.33;;
74064;SDS011;62421;51.412;5.432;2023-08-17T04:23:17;8.23;;;2.80;;
74064;SDS011;62421;51.412;5.432;2023-08-17T04:25:43;9.17;;;2.57;;
74064;SDS011;62421;51.412;5.432;2023-08-17T04:28:08;9.48;;;2.58;;
74064;SDS011;62421;51.412;5.432;2023-08-17T04:30:34;6.20;;;2.50;;
74064;SDS011;62421;51.412;5.432;2023-08-17T04:32:59;12.13;;;2.50;;
74064;SDS011;62421;51.412;5.432;2023-08-17T04:35:24;8.40;;;2.28;;
74064;SDS011;62421;51.412;5.432;2023-08-17T04:37:50;6.70;;;2.38;;
74064;SDS011;62421;51.412;5.432;2023-08-17T04:40:15;8.03;;;2.00;;
74064;SDS011;62421;51.412;5.432;2023-08-17T04:42:41;6.43;;;2.20;;
74064;SDS011;62421;51.412;5.432;2023-08-17T04:45:07;11.83;;;2.77;;
74064;SDS011;62421;51.412;5.432;2023-08-17T04:47:33;6.63;;;2.10;;
74064;SDS011;62421;51.412;5.432;2023-08-17T04:49:58;8.57;;;2.37;;
74064;SDS011;62421;51.412;5.432;2023-08-17T04:52:24;8.13;;;2.43;;
74064;SDS011;62421;51.412;5.432;2023-08-17T04:54:49;8.17;;;2.30;;
74064;SDS011;62421;51.412;5.432;2023-08-17T04:57:14;7.75;;;2.78;;
74064;SDS011;62421;51.412;5.432;2023-08-17T04:59:40;6.43;;;2.27;;
74064;SDS011;62421;51.412;5.432;2023-08-17T05:02:05;8.23;;;2.10;;
74064;SDS011;62421;51.412;5.432;2023-08-17T05:04:31;7.17;;;2.03;;
74064;SDS011;62421;51.412;5.432;2023-08-17T05:06:56;5.10;;;2.10;;
74064;SDS011;62421;51.412;5.432;2023-08-17T05:09:22;5.53;;;2.07;;
74064;SDS011;62421;51.412;5.432;2023-08-17T05:11:47;6.37;;;2.20;;
74064;SDS011;62421;51.412;5.432;2023-08-17T05:14:13;10.03;;;2.77;;
74064;SDS011;62421;51.412;5.432;2023-08-17T05:16:38;8.82;;;2.72;;
74064;SDS011;62421;51.412;5.432;2023-08-17T05:19:04;8.20;;;2.53;;
74064;SDS011;62421;51.412;5.432;2023-08-17T05:21:29;10.97;;;2.20;;
74064;SDS011;62421;51.412;5.432;2023-08-17T05:23:55;5.32;;;2.13;;
74064;SDS011;62421;51.412;5.432;2023-08-17T05:26:21;9.57;;;2.60;;
74064;SDS011;62421;51.412;5.432;2023-08-17T05:28:47;13.23;;;2.72;;
74064;SDS011;62421;51.412;5.432;2023-08-17T05:31:12;8.73;;;2.57;;
74064;SDS011;62421;51.412;5.432;2023-08-17T05:33:37;8.93;;;2.57;;
74064;SDS011;62421;51.412;5.432;2023-08-17T05:36:05;7.00;;;2.17;;
74064;SDS011;62421;51.412;5.432;2023-08-17T05:38:31;7.88;;;2.38;;
74064;SDS011;62421;51.412;5.432;2023-08-17T05:40:57;7.23;;;2.30;;
74064;SDS011;62421;51.412;5.432;2023-08-17T05:43:23;9.77;;;2.70;;
74064;SDS011;62421;51.412;5.432;2023-08-17T05:45:49;8.00;;;2.72;;
74064;SDS011;62421;51.412;5.432;2023-08-17T05:48:15;6.67;;;2.00;;
74064;SDS011;62421;51.412;5.432;2023-08-17T05:50:41;7.17;;;2.77;;
74064;SDS011;62421;51.412;5.432;2023-08-17T05:53:07;7.47;;;2.75;;
74064;SDS011;62421;51.412;5.432;2023-08-17T05:55:32;10.45;;;2.00;;
74064;SDS011;62421;51.412;5.432;2023-08-17T05:57:58;6.77;;;2.30;;
74064;SDS011;62421;51.412;5.432;2023-08-17T06:00:23;10.37;;;2.40;;
74064;SDS011;62421;51.412;5.432;2023-08-17T06:02:49;8.03;;;3.30;;
74064;SDS011;62421;51.412;5.432;2023-08-17T06:05:16;11.15;;;3.10;;
74064;SDS011;62421;51.412;5.432;2023-08-17T06:07:43;7.80;;;2.45;;
74064;SDS011;62421;51.412;5.432;2023-08-17T06:10:09;7.13;;;2.20;;
74064;SDS011;62421;51.412;5.432;2023-08-17T06:12:35;7.60;;;3.23;;
74064;SDS011;62421;51.412;5.432;2023-08-17T06:15:04;7.82;;;3.25;;
74064;SDS011;62421;51.412;5.432;2023-08-17T06:17:30;6.73;;;2.50;;
74064;SDS011;62421;51.412;5.432;2023-08-17T06:19:55;10.60;;;3.13;;
74064;SDS011;62421;51.412;5.432;2023-08-17T06:22:21;8.80;;;2.87;;
74064;SDS011;62421;51.412;5.432;2023-08-17T06:24:46;7.33;;;3.30;;
74064;SDS011;62421;51.412;5.432;2023-08-17T06:27:13;8.50;;;3.20;;
74064;SDS011;62421;51.412;5.432;2023-08-17T06:29:39;9.68;;;3.13;;
74064;SDS011;62421;51.412;5.432;2023-08-17T06:32:05;7.03;;;3.20;;
74064;SDS011;62421;51.412;5.432;2023-08-17T06:34:30;10.85;;;3.42;;
74064;SDS011;62421;51.412;5.432;2023-08-17T06:36:56;8.53;;;3.53;;
74064;SDS011;62421;51.412;5.432;2023-08-17T06:39:26;12.98;;;3.92;;
74064;SDS011;62421;51.412;5.432;2023-08-17T06:41:52;13.30;;;3.50;;
74064;SDS011;62421;51.412;5.432;2023-08-17T06:44:18;10.73;;;3.72;;
74064;SDS011;62421;51.412;5.432;2023-08-17T06:46:43;15.17;;;3.77;;
74064;SDS011;62421;51.412;5.432;2023-08-17T06:49:09;8.57;;;3.30;;
74064;SDS011;62421;51.412;5.432;2023-08-17T06:51:35;7.75;;;3.97;;
74064;SDS011;62421;51.412;5.432;2023-08-17T06:54:01;10.40;;;3.50;;
74064;SDS011;62421;51.412;5.432;2023-08-17T06:56:26;8.80;;;2.80;;
74064;SDS011;62421;51.412;5.432;2023-08-17T06:58:51;8.63;;;3.57;;
74064;SDS011;62421;51.412;5.432;2023-08-17T07:01:17;11.83;;;3.83;;
74064;SDS011;62421;51.412;5.432;2023-08-17T07:03:42;6.73;;;3.47;;
74064;SDS011;62421;51.412;5.432;2023-08-17T07:06:08;9.25;;;3.33;;
74064;SDS011;62421;51.412;5.432;2023-08-17T07:08:34;9.03;;;3.17;;
74064;SDS011;62421;51.412;5.432;2023-08-17T07:10:59;11.77;;;3.27;;
74064;SDS011;62421;51.412;5.432;2023-08-17T07:13:25;8.93;;;4.25;;
74064;SDS011;62421;51.412;5.432;2023-08-17T07:15:50;10.60;;;4.13;;
74064;SDS011;62421;51.412;5.432;2023-08-17T07:18:15;11.38;;;4.50;;
74064;SDS011;62421;51.412;5.432;2023-08-17T07:20:41;10.97;;;3.50;;
74064;SDS011;62421;51.412;5.432;2023-08-17T07:23:06;13.40;;;4.63;;
74064;SDS011;62421;51.412;5.432;2023-08-17T07:25:31;11.53;;;4.00;;
74064;SDS011;62421;51.412;5.432;2023-08-17T07:27:58;10.93;;;4.43;;
74064;SDS011;62421;51.412;5.432;2023-08-17T07:30:23;9.93;;;3.93;;
74064;SDS011;62421;51.412;5.432;2023-08-17T07:32:48;9.50;;;3.70;;
74064;SDS011;62421;51.412;5.432;2023-08-17T07:35:14;12.40;;;4.37;;
74064;SDS011;62421;51.412;5.432;2023-08-17T07:37:39;10.00;;;4.13;;
74064;SDS011;62421;51.412;5.432;2023-08-17T07:40:04;14.07;;;3.77;;
74064;SDS011;62421;51.412;5.432;2023-08-17T07:42:30;7.18;;;3.55;;
74064;SDS011;62421;51.412;5.432;2023-08-17T07:44:56;11.40;;;3.70;;
74064;SDS011;62421;51.412;5.432;2023-08-17T07:47:21;18.20;;;4.40;;
74064;SDS011;62421;51.412;5.432;2023-08-17T07:49:47;11.25;;;4.35;;
74064;SDS011;62421;51.412;5.432;2023-08-17T07:52:12;13.50;;;4.20;;
74064;SDS011;62421;51.412;5.432;2023-08-17T07:54:37;12.20;;;4.30;;
74064;SDS011;62421;51.412;5.432;2023-08-17T07:57:03;8.00;;;3.60;;
74064;SDS011;62421;51.412;5.432;2023-08-17T07:59:28;11.70;;;3.93;;
74064;SDS011;62421;51.412;5.432;2023-08-17T08:01:54;11.32;;;3.95;;
74064;SDS011;62421;51.412;5.432;2023-08-17T08:04:19;9.93;;;4.17;;
74064;SDS011;62421;51.412;5.432;2023-08-17T08:06:45;5.77;;;3.17;;
74064;SDS011;62421;51.412;5.432;2023-08-17T08:09:11;9.30;;;4.03;;
74064;SDS011;62421;51.412;5.432;2023-08-17T08:11:37;11.57;;;4.10;;
74064;SDS011;62421;51.412;5.432;2023-08-17T08:14:02;7.83;;;3.87;;
74064;SDS011;62421;51.412;5.432;2023-08-17T08:16:28;11.67;;;4.20;;
74064;SDS011;62421;51.412;5.432;2023-08-17T08:18:55;12.15;;;4.45;;
74064;SDS011;62421;51.412;5.432;2023-08-17T08:21:20;11.30;;;4.53;;
74064;SDS011;62421;51.412;5.432;2023-08-17T08:23:46;9.37;;;4.03;;
74064;SDS011;62421;51.412;5.432;2023-08-17T08:26:11;10.47;;;4.83;;
74064;SDS011;62421;51.412;5.432;2023-08-17T08:28:36;8.93;;;4.00;;
74064;SDS011;62421;51.412;5.432;2023-08-17T08:31:02;10.02;;;4.10;;
74064;SDS011;62421;51.412;5.432;2023-08-17T08:33:30;9.60;;;4.00;;
74064;SDS011;62421;51.412;5.432;2023-08-17T08:35:56;8.70;;;4.00;;
74064;SDS011;62421;51.412;5.432;2023-08-17T08:38:22;12.30;;;5.20;;
74064;SDS011;62421;51.412;5.432;2023-08-17T08:40:47;12.17;;;4.37;;
74064;SDS011;62421;51.412;5.432;2023-08-17T08:43:13;10.88;;;4.70;;
74064;SDS011;62421;51.412;5.432;2023-08-17T08:45:41;10.70;;;4.75;;
74064;SDS011;62421;51.412;5.432;2023-08-17T08:48:09;9.07;;;5.30;;
74064;SDS011;62421;51.412;5.432;2023-08-17T08:50:36;14.75;;;5.25;;
74064;SDS011;62421;51.412;5.432;2023-08-17T08:53:04;11.55;;;4.75;;
74064;SDS011;62421;51.412;5.432;2023-08-17T08:55:50;11.02;;;4.38;;
74064;SDS011;62421;51.412;5.432;2023-08-17T08:58:22;10.38;;;4.60;;
74064;SDS011;62421;51.412;5.432;2023-08-17T09:00:49;10.10;;;4.67;;
74064;SDS011;62421;51.412;5.432;2023-08-17T09:03:15;11.80;;;4.93;;
74064;SDS011;62421;51.412;5.432;2023-08-17T09:05:46;7.82;;;4.15;;
74064;SDS011;62421;51.412;5.432;2023-08-17T09:08:12;11.27;;;4.72;;
74064;SDS011;62421;51.412;5.432;2023-08-17T09:10:39;11.43;;;4.63;;
74064;SDS011;62421;51.412;5.432;2023-08-17T09:13:06;13.50;;;4.75;;
74064;SDS011;62421;51.412;5.432;2023-08-17T09:15:31;11.40;;;4.77;;
74064;SDS011;62421;51.412;5.432;2023-08-17T09:17:56;15.43;;;4.60;;
74064;SDS011;62421;51.412;5.432;2023-08-17T09:23:11;13.82;;;5.60;;
74064;SDS011;62421;51.412;5.432;2023-08-17T09:25:38;13.60;;;5.40;;
74064;SDS011;62421;51.412;5.432;2023-08-17T09:28:22;11.77;;;5.15;;
74064;SDS011;62421;51.412;5.432;2023-08-17T09:33:17;15.00;;;5.43;;
74064;SDS011;62421;51.412;5.432;2023-08-17T09:35:43;11.05;;;4.88;;
74064;SDS011;62421;51.412;5.432;2023-08-17T09:38:08;14.83;;;5.33;;
74064;SDS011;62421;51.412;5.432;2023-08-17T09:40:34;11.00;;;5.90;;
74064;SDS011;62421;51.412;5.432;2023-08-17T09:42:59;12.83;;;5.73;;
74064;SDS011;62421;51.412;5.432;2023-08-17T09:45:25;17.03;;;6.53;;
74064;SDS011;62421;51.412;5.432;2023-08-17T09:47:52;13.63;;;5.47;;
74064;SDS011;62421;51.412;5.432;2023-08-17T09:50:17;16.63;;;5.53;;
74064;SDS011;62421;51.412;5.432;2023-08-17T09:52:47;15.93;;;5.20;;
74064;SDS011;62421;51.412;5.432;2023-08-17T09:55:17;15.20;;;5.93;;
74064;SDS011;62421;51.412;5.432;2023-08-17T09:57:43;15.43;;;6.25;;
74064;SDS011;62421;51.412;5.432;2023-08-17T10:00:10;15.30;;;6.18;;
74064;SDS011;62421;51.412;5.432;2023-08-17T10:02:36;11.13;;;5.40;;
74064;SDS011;62421;51.412;5.432;2023-08-17T10:05:01;15.90;;;5.87;;
74064;SDS011;62421;51.412;5.432;2023-08-17T10:07:30;17.75;;;6.30;;
74064;SDS011;62421;51.412;5.432;2023-08-17T10:09:56;16.95;;;6.53;;
74064;SDS011;62421;51.412;5.432;2023-08-17T10:12:27;16.40;;;5.37;;
74064;SDS011;62421;51.412;5.432;2023-08-17T10:14:59;16.13;;;6.82;;
74064;SDS011;62421;51.412;5.432;2023-08-17T10:17:30;17.70;;;6.95;;
74064;SDS011;62421;51.412;5.432;2023-08-17T10:20:00;18.58;;;6.95;;
74064;SDS011;62421;51.412;5.432;2023-08-17T10:25:04;16.80;;;5.80;;
74064;SDS011;62421;51.412;5.432;2023-08-17T10:27:31;20.15;;;6.53;;
74064;SDS011;62421;51.412;5.432;2023-08-17T10:29:58;20.88;;;7.35;;
74064;SDS011;62421;51.412;5.432;2023-08-17T10:32:25;16.45;;;6.75;;
74064;SDS011;62421;51.412;5.432;2023-08-17T10:34:52;15.90;;;6.65;;
74064;SDS011;62421;51.412;5.432;2023-08-17T10:37:18;15.93;;;6.23;;
74064;SDS011;62421;51.412;5.432;2023-08-17T10:39:45;18.95;;;6.68;;
74064;SDS011;62421;51.412;5.432;2023-08-17T10:42:12;18.63;;;6.63;;
74064;SDS011;62421;51.412;5.432;2023-08-17T10:44:43;20.90;;;6.75;;
74064;SDS011;62421;51.412;5.432;2023-08-17T10:47:30;15.43;;;6.65;;
74064;SDS011;62421;51.412;5.432;2023-08-17T10:50:04;17.27;;;7.03;;
74064;SDS011;62421;51.412;5.432;2023-08-17T10:52:32;15.43;;;6.10;;
74064;SDS011;62421;51.412;5.432;2023-08-17T10:54:59;15.93;;;6.80;;
74064;SDS011;62421;51.412;5.432;2023-08-17T11:02:56;13.63;;;6.03;;
74064;SDS011;62421;51.412;5.432;2023-08-17T11:08:23;16.13;;;7.18;;
74064;SDS011;62421;51.412;5.432;2023-08-17T11:11:02;17.55;;;7.03;;
74064;SDS011;62421;51.412;5.432;2023-08-17T11:13:33;17.30;;;6.78;;
74064;SDS011;62421;51.412;5.432;2023-08-17T11:16:01;17.03;;;6.40;;
74064;SDS011;62421;51.412;5.432;2023-08-17T11:18:27;18.20;;;7.40;;
74064;SDS011;62421;51.412;5.432;2023-08-17T11:20:53;15.50;;;7.38;;
74064;SDS011;62421;51.412;5.432;2023-08-17T11:23:20;17.52;;;7.38;;
74064;SDS011;62421;51.412;5.432;2023-08-17T11:25:45;22.85;;;7.63;;
74064;SDS011;62421;51.412;5.432;2023-08-17T11:28:11;18.60;;;7.00;;
74064;SDS011;62421;51.412;5.432;2023-08-17T11:30:39;19.17;;;6.37;;
74064;SDS011;62421;51.412;5.432;2023-08-17T11:33:06;18.90;;;7.13;;
74064;SDS011;62421;51.412;5.432;2023-08-17T11:35:33;16.25;;;7.63;;
74064;SDS011;62421;51.412;5.432;2023-08-17T11:37:58;23.87;;;7.40;;
74064;SDS011;62421;51.412;5.432;2023-08-17T11:40:24;17.33;;;7.77;;
74064;SDS011;62421;51.412;5.432;2023-08-17T11:42:51;20.25;;;8.13;;
74064;SDS011;62421;51.412;5.432;2023-08-17T11:45:17;22.43;;;7.10;;
74064;SDS011;62421;51.412;5.432;2023-08-17T11:47:43;18.15;;;6.82;;
74064;SDS011;62421;51.412;5.432;2023-08-17T11:50:11;20.90;;;8.50;;
74064;SDS011;62421;51.412;5.432;2023-08-17T11:52:37;17.95;;;8.63;;
74064;SDS011;62421;51.412;5.432;2023-08-17T11:55:07;20.50;;;7.75;;
74064;SDS011;62421;51.412;5.432;2023-08-17T11:57:36;16.53;;;6.70;;
74064;SDS011;62421;51.412;5.432;2023-08-17T12:00:03;20.08;;;8.13;;
74064;SDS011;62421;51.412;5.432;2023-08-17T12:02:31;18.63;;;7.35;;
74064;SDS011;62421;51.412;5.432;2023-08-17T12:04:57;18.08;;;8.13;;
74064;SDS011;62421;51.412;5.432;2023-08-17T12:07:25;21.57;;;8.40;;
74064;SDS011;62421;51.412;5.432;2023-08-17T12:09:51;18.88;;;8.30;;
74064;SDS011;62421;51.412;5.432;2023-08-17T12:12:18;16.90;;;7.55;;
74064;SDS011;62421;51.412;5.432;2023-08-17T12:14:44;22.20;;;8.17;;
74064;SDS011;62421;51.412;5.432;2023-08-17T12:17:18;17.42;;;8.18;;
74064;SDS011;62421;51.412;5.432;2023-08-17T12:19:44;20.45;;;7.47;;
74064;SDS011;62421;51.412;5.432;2023-08-17T12:22:13;18.95;;;8.32;;
74064;SDS011;62421;51.412;5.432;2023-08-17T12:24:38;15.43;;;8.00;;
74064;SDS011;62421;51.412;5.432;2023-08-17T12:27:04;17.07;;;7.33;;
74064;SDS011;62421;51.412;5.432;2023-08-17T12:29:30;17.88;;;8.07;;
74064;SDS011;62421;51.412;5.432;2023-08-17T12:32:00;21.17;;;9.23;;
74064;SDS011;62421;51.412;5.432;2023-08-17T12:34:26;16.30;;;8.38;;
74064;SDS011;62421;51.412;5.432;2023-08-17T12:36:51;16.93;;;7.73;;
74064;SDS011;62421;51.412;5.432;2023-08-17T12:39:16;15.30;;;7.93;;
74064;SDS011;62421;51.412;5.432;2023-08-17T12:41:42;16.17;;;8.13;;
74064;SDS011;62421;51.412;5.432;2023-08-17T12:44:10;17.40;;;8.55;;
74064;SDS011;62421;51.412;5.432;2023-08-17T12:46:39;19.17;;;7.80;;
74064;SDS011;62421;51.412;5.432;2023-08-17T12:49:05;15.50;;;7.50;;
74064;SDS011;62421;51.412;5.432;2023-08-17T12:51:30;16.88;;;7.78;;
74064;SDS011;62421;51.412;5.432;2023-08-17T12:53:56;16.50;;;7.37;;
74064;SDS011;62421;51.412;5.432;2023-08-17T12:56:21;13.57;;;7.70;;
74064;SDS011;62421;51.412;5.432;2023-08-17T12:58:46;14.53;;;7.43;;
74064;SDS011;62421;51.412;5.432;2023-08-17T13:01:12;16.83;;;7.80;;
74064;SDS011;62421;51.412;5.432;2023-08-17T13:03:38;12.35;;;6.97;;
74064;SDS011;62421;51.412;5.432;2023-08-17T13:06:04;15.43;;;7.73;;
74064;SDS011;62421;51.412;5.432;2023-08-17T13:08:29;15.33;;;6.93;;
74064;SDS011;62421;51.412;5.432;2023-08-17T13:10:55;17.83;;;6.63;;
74064;SDS011;62421;51.412;5.432;2023-08-17T13:13:20;15.57;;;7.32;;
74064;SDS011;62421;51.412;5.432;2023-08-17T13:15:46;12.03;;;7.07;;
74064;SDS011;62421;51.412;5.432;2023-08-17T13:18:11;12.47;;;6.93;;
74064;SDS011;62421;51.412;5.432;2023-08-17T13:20:37;18.23;;;8.97;;
74064;SDS011;62421;51.412;5.432;2023-08-17T13:23:03;12.80;;;7.28;;
74064;SDS011;62421;51.412;5.432;2023-08-17T13:25:29;14.25;;;7.10;;
74064;SDS011;62421;51.412;5.432;2023-08-17T13:27:54;18.27;;;6.53;;
74064;SDS011;62421;51.412;5.432;2023-08-17T13:30:20;11.30;;;6.37;;
74064;SDS011;62421;51.412;5.432;2023-08-17T13:32:46;14.38;;;6.82;;
74064;SDS011;62421;51.412;5.432;2023-08-17T13:35:11;11.57;;;6.33;;
74064;SDS011;62421;51.412;5.432;2023-08-17T13:37:36;13.60;;;6.37;;
74064;SDS011;62421;51.412;5.432;2023-08-17T13:40:02;18.43;;;7.10;;
74064;SDS011;62421;51.412;5.432;2023-08-17T13:42:28;14.05;;;6.10;;
74064;SDS011;62421;51.412;5.432;2023-08-17T13:44:53;14.17;;;6.50;;
74064;SDS011;62421;51.412;5.432;2023-08-17T13:47:19;11.00;;;7.50;;
74064;SDS011;62421;51.412;5.432;2023-08-17T13:49:44;16.23;;;7.20;;
74064;SDS011;62421;51.412;5.432;2023-08-17T13:52:10;13.13;;;7.53;;
74064;SDS011;62421;51.412;5.432;2023-08-17T13:54:35;18.43;;;7.63;;
74064;SDS011;62421;51.412;5.432;2023-08-17T13:57:01;13.25;;;7.10;;
74064;SDS011;62421;51.412;5.432;2023-08-17T13:59:26;14.90;;;8.70;;
74064;SDS011;62421;51.412;5.432;2023-08-17T14:01:52;15.67;;;8.63;;
74064;SDS011;62421;51.412;5.432;2023-08-17T14:04:17;14.97;;;8.10;;
74064;SDS011;62421;51.412;5.432;2023-08-17T14:06:43;11.93;;;6.88;;
74064;SDS011;62421;51.412;5.432;2023-08-17T14:09:09;19.03;;;9.03;;
74064;SDS011;62421;51.412;5.432;2023-08-17T14:11:34;16.03;;;7.63;;
74064;SDS011;62421;51.412;5.432;2023-08-17T14:14:00;17.10;;;8.17;;
74064;SDS011;62421;51.412;5.432;2023-08-17T14:16:25;15.93;;;9.40;;
74064;SDS011;62421;51.412;5.432;2023-08-17T14:18:50;14.63;;;7.70;;
74064;SDS011;62421;51.412;5.432;2023-08-17T14:21:16;16.97;;;8.07;;
74064;SDS011;62421;51.412;5.432;2023-08-17T14:23:41;15.50;;;8.63;;
74064;SDS011;62421;51.412;5.432;2023-08-17T14:26:06;17.13;;;8.30;;
74064;SDS011;62421;51.412;5.432;2023-08-17T14:28:32;16.33;;;9.00;;
74064;SDS011;62421;51.412;5.432;2023-08-17T14:30:57;14.80;;;8.07;;
74064;SDS011;62421;51.412;5.432;2023-08-17T14:33:22;17.83;;;9.57;;
74064;SDS011;62421;51.412;5.432;2023-08-17T14:35:48;16.53;;;8.53;;
74064;SDS011;62421;51.412;5.432;2023-08-17T14:38:14;17.40;;;9.77;;
74064;SDS011;62421;51.412;5.432;2023-08-17T14:40:43;17.93;;;10.63;;
74064;SDS011;62421;51.412;5.432;2023-08-17T14:43:10;20.92;;;8.82;;
74064;SDS011;62421;51.412;5.432;2023-08-17T14:45:40;20.80;;;10.07;;
74064;SDS011;62421;51.412;5.432;2023-08-17T14:48:06;18.35;;;10.70;;
74064;SDS011;62421;51.412;5.432;2023-08-17T14:50:33;17.90;;;10.18;;
74064;SDS011;62421;51.412;5.432;2023-08-17T14:53:02;19.23;;;10.35;;
74064;SDS011;62421;51.412;5.432;2023-08-17T14:55:30;16.55;;;10.02;;